Nur fliegen ist schöner ....

Willkommen beim Flugservice Bautzen GmbH

Wir sind eine nach europäischen Richtlinien zugelassene Flugschule und lizenziertes Luftfahrtunternehmen. Bei uns können sie nicht nur Rundflüge über die Oberlausitz oder Sachsen buchen, sondern in unserer Flugschule selber das Fliegen erlernen. Erfahrene Fluglehrer stehen ihnen dabei zur Seite.

Wir bieten Ihnen außerdem spezielle Flüge zur Vermessung oder Fotoflüge für Luftbildaufnahmen an. In Zusammenarbeit mit dem Fallschirmsportclub Dresden und dem Cottbuser Fallschirmsportclub setzen wir am Flugplatz Bautzen und Neuhausen Fallschirmspringer ab.
Schauen sie sich in Ruhe bei uns um und wenn sie Fragen haben oder weitere Informationen benötigen, scheuen sie sich nicht Kontakt mit uns aufzunehmen.

Rundflüge können sie ganz leicht auch online in unserem Shop buchen.

Terminkalender

Letzter Monat Juli 2018 Nächster Monat
Mo Di Mi Do Fr Sa So
week 26 1
week 27 2 3 4 5 6 7 8
week 28 9 10 11 12 13 14 15
week 29 16 17 18 19 20 21 22
week 30 23 24 25 26 27 28 29
week 31 30 31

Flugwetterinfo

[Quelle: ADDS]
METAR
EDDC 221420Z 02007KT 330V070 CAVOK 26/09 Q1013 NOSIG =
TAF
EDDC 221100Z 2212/2312 36008KT CAVOK BECMG 2219/2221 26004KT BECMG 2306/2308 32005KT =
SR / SS: 03:13 / 19:03 UTC (EDAB Flugplatz Bautzen 2018-07-22)

Webcam EDAB

Webcam EDAB
Flugservice Bautzen GmbH, Kornmarkt 34, 02625 Bautzen  Telefon: +49 (3591) 211105, Telefax: +49 (3591) 274512, E-Mail:  flugservice(at)fsbautzen.de